createdAt,value
2023-05-16T00:00:58.652Z,2.15
2023-05-16T00:03:28.001Z,1.90
2023-05-16T00:05:58.029Z,1.75
2023-05-16T00:08:24.706Z,1.50
2023-05-16T00:10:51.275Z,1.52
2023-05-16T00:13:25.753Z,1.40
2023-05-16T00:15:53.624Z,1.30
2023-05-16T00:18:23.038Z,1.33
2023-05-16T00:20:50.743Z,1.10
2023-05-16T00:23:20.470Z,1.15
2023-05-16T00:25:47.411Z,0.95
2023-05-16T00:28:16.985Z,0.80
2023-05-16T00:30:43.579Z,1.00
2023-05-16T00:33:10.235Z,1.00
2023-05-16T00:35:39.582Z,1.27
2023-05-16T00:38:06.367Z,1.20
2023-05-16T00:40:35.281Z,1.10
2023-05-16T00:43:04.452Z,1.00
2023-05-16T00:45:49.927Z,0.95
2023-05-16T00:48:16.767Z,0.80
2023-05-16T00:50:43.985Z,0.93
2023-05-16T00:53:11.372Z,0.70
2023-05-16T00:55:38.638Z,0.80
2023-05-16T00:58:05.877Z,0.77
2023-05-16T01:00:35.214Z,0.80
2023-05-16T01:03:02.237Z,0.93
2023-05-16T01:05:29.742Z,1.05
2023-05-16T01:07:57.018Z,1.05
2023-05-16T01:10:24.604Z,0.73
2023-05-16T01:13:07.481Z,0.73
2023-05-16T01:15:46.488Z,0.63
2023-05-16T01:18:16.195Z,0.70
2023-05-16T01:20:53.395Z,0.75
2023-05-16T01:23:52.953Z,0.50
2023-05-16T01:26:30.161Z,0.75
2023-05-16T01:28:56.972Z,0.75
2023-05-16T01:31:26.362Z,0.90
2023-05-16T01:33:52.980Z,0.88
2023-05-16T01:36:38.269Z,0.77
2023-05-16T01:39:20.069Z,1.02
2023-05-16T01:42:04.655Z,1.20
2023-05-16T01:44:40.398Z,1.10
2023-05-16T01:47:12.734Z,0.90
2023-05-16T01:49:44.194Z,0.90
2023-05-16T01:52:19.621Z,0.90
2023-05-16T01:54:48.697Z,0.90
2023-05-16T01:59:44.082Z,0.90
2023-05-16T02:02:13.190Z,1.05
2023-05-16T02:04:39.830Z,0.95
2023-05-16T02:07:06.509Z,1.08
2023-05-16T02:09:33.167Z,1.00
2023-05-16T02:12:00.626Z,0.90
2023-05-16T02:14:29.579Z,0.70
2023-05-16T02:16:56.164Z,1.00
2023-05-16T02:19:22.814Z,0.98
2023-05-16T02:21:52.654Z,0.80
2023-05-16T02:24:21.634Z,0.70
2023-05-16T02:29:19.542Z,0.70
2023-05-16T02:31:46.401Z,0.90
2023-05-16T02:34:12.988Z,0.80
2023-05-16T02:36:41.606Z,0.90
2023-05-16T02:39:10.216Z,1.00
2023-05-16T02:41:37.201Z,0.73
2023-05-16T02:44:03.848Z,0.98
2023-05-16T02:46:36.745Z,1.10
2023-05-16T02:49:03.737Z,0.90
2023-05-16T02:51:35.114Z,0.90
2023-05-16T02:54:01.986Z,0.93
2023-05-16T02:56:30.849Z,1.05
2023-05-16T02:59:00.359Z,0.80
2023-05-16T03:01:26.953Z,0.75
2023-05-16T03:03:58.609Z,0.80
2023-05-16T03:06:25.412Z,0.90
2023-05-16T03:08:52.012Z,1.10
2023-05-16T03:11:24.964Z,1.17
2023-05-16T03:13:51.550Z,1.35
2023-05-16T03:16:18.141Z,1.20
2023-05-16T03:18:44.847Z,1.10
2023-05-16T03:21:11.551Z,1.08
2023-05-16T03:23:38.134Z,1.35
2023-05-16T03:26:04.746Z,0.90
2023-05-16T03:28:33.878Z,0.90
2023-05-16T03:31:02.731Z,1.00
2023-05-16T03:33:31.537Z,1.00
2023-05-16T03:35:58.262Z,1.10
2023-05-16T03:38:29.633Z,1.10
2023-05-16T03:40:56.301Z,1.13
2023-05-16T03:43:22.819Z,1.00
2023-05-16T03:45:54.144Z,0.90
2023-05-16T03:48:20.759Z,1.50
2023-05-16T03:50:47.857Z,1.23
2023-05-16T03:53:19.216Z,0.93
2023-05-16T03:55:48.832Z,1.10
2023-05-16T03:58:23.014Z,1.10
2023-05-16T04:00:51.972Z,1.00
2023-05-16T04:03:18.562Z,1.05
2023-05-16T04:05:45.214Z,1.10
2023-05-16T04:08:11.979Z,0.82
2023-05-16T04:10:40.773Z,0.90
2023-05-16T04:13:09.969Z,1.10
2023-05-16T04:15:39.488Z,0.93
2023-05-16T04:18:08.370Z,0.80
2023-05-16T04:20:39.717Z,1.10
2023-05-16T04:23:06.280Z,1.13
2023-05-16T04:25:33.157Z,1.00
2023-05-16T04:27:59.750Z,0.98
2023-05-16T04:30:28.617Z,0.95
2023-05-16T04:32:59.442Z,0.82
2023-05-16T04:35:28.445Z,0.90
2023-05-16T04:37:58.044Z,1.00
2023-05-16T04:40:29.454Z,0.88
2023-05-16T04:42:56.057Z,1.00
2023-05-16T04:45:22.716Z,0.82
2023-05-16T04:47:49.308Z,0.77
2023-05-16T04:50:16.234Z,0.77
2023-05-16T04:52:42.846Z,0.90
2023-05-16T04:55:12.741Z,0.80
2023-05-16T04:57:39.516Z,0.82
2023-05-16T05:00:10.458Z,0.90
2023-05-16T05:02:40.151Z,0.73
2023-05-16T05:05:07.648Z,0.80
2023-05-16T05:07:36.801Z,1.00
2023-05-16T05:12:29.947Z,0.95
2023-05-16T05:15:03.715Z,1.17
2023-05-16T05:17:30.405Z,0.93
2023-05-16T05:19:57.080Z,1.20
2023-05-16T05:22:25.912Z,1.00
2023-05-16T05:24:52.466Z,1.35
2023-05-16T05:27:18.981Z,1.10
2023-05-16T05:29:45.925Z,1.20
2023-05-16T05:32:12.586Z,1.38
2023-05-16T05:34:39.240Z,1.17
2023-05-16T05:37:26.728Z,1.17
2023-05-16T05:39:53.352Z,1.35
2023-05-16T05:42:19.886Z,1.55
2023-05-16T05:44:49.480Z,1.35
2023-05-16T05:47:18.427Z,1.40
2023-05-16T05:49:45.028Z,1.10
2023-05-16T05:52:14.116Z,1.20
2023-05-16T05:57:07.176Z,1.27
2023-05-16T05:59:34.078Z,1.17
2023-05-16T06:02:00.825Z,1.00
2023-05-16T06:04:29.548Z,0.85
2023-05-16T06:06:56.427Z,0.98
2023-05-16T06:09:23.313Z,1.10
2023-05-16T06:11:52.312Z,0.93
2023-05-16T06:16:45.410Z,0.95
2023-05-16T06:19:15.951Z,1.33
2023-05-16T06:21:43.776Z,1.10
2023-05-16T06:24:11.242Z,1.17
2023-05-16T06:26:37.854Z,1.17
2023-05-16T06:29:04.443Z,1.10
2023-05-16T06:31:36.001Z,1.17
2023-05-16T06:34:02.702Z,1.13
2023-05-16T06:36:29.316Z,1.10
2023-05-16T06:38:55.891Z,1.13
2023-05-16T06:41:22.690Z,1.33
2023-05-16T06:43:54.073Z,1.38
2023-05-16T06:46:21.137Z,1.60
2023-05-16T06:48:47.855Z,1.80
2023-05-16T06:51:19.228Z,1.40
2023-05-16T06:53:48.902Z,1.65
2023-05-16T06:56:15.519Z,1.83
2023-05-16T06:58:44.863Z,2.30
2023-05-16T07:01:16.266Z,2.20
2023-05-16T07:03:48.240Z,2.60
2023-05-16T07:06:15.162Z,2.03
2023-05-16T07:08:44.276Z,2.25
2023-05-16T07:11:13.233Z,1.92
2023-05-16T07:13:44.850Z,2.35
2023-05-16T07:16:15.649Z,2.33
2023-05-16T07:18:44.815Z,2.30
2023-05-16T07:21:11.605Z,2.80
2023-05-16T07:23:40.565Z,2.58
2023-05-16T07:26:07.201Z,2.70
2023-05-16T07:28:35.989Z,2.78
2023-05-16T07:31:02.652Z,2.95
2023-05-16T07:33:31.364Z,2.92
2023-05-16T07:36:15.336Z,2.88
2023-05-16T07:38:43.729Z,2.83
2023-05-16T07:41:10.556Z,3.55
2023-05-16T07:43:40.124Z,3.38
2023-05-16T07:46:06.891Z,3.28
2023-05-16T07:48:35.872Z,3.20
2023-05-16T07:51:07.700Z,3.78
2023-05-16T07:53:34.667Z,4.05
2023-05-16T07:56:04.021Z,4.45
2023-05-16T07:58:33.293Z,5.60
2023-05-16T08:01:00.013Z,4.93
2023-05-16T08:03:26.814Z,4.90
2023-05-16T08:05:53.573Z,4.93
2023-05-16T08:08:22.373Z,4.78
2023-05-16T08:10:53.812Z,4.50
2023-05-16T08:13:20.426Z,4.60
2023-05-16T08:15:51.971Z,4.47
2023-05-16T08:18:20.696Z,5.32
2023-05-16T08:20:48.823Z,5.22
2023-05-16T08:23:17.904Z,5.15
2023-05-16T08:28:13.308Z,5.60
2023-05-16T08:30:42.429Z,5.53
2023-05-16T08:33:10.431Z,5.22
2023-05-16T08:35:37.221Z,5.50
2023-05-16T08:38:08.320Z,5.95
2023-05-16T08:40:35.100Z,6.55
2023-05-16T08:43:05.241Z,6.13
2023-05-16T08:45:31.920Z,7.03
2023-05-16T08:48:01.230Z,6.38
2023-05-16T08:50:31.749Z,6.47
2023-05-16T08:53:08.538Z,6.65
2023-05-16T08:55:38.862Z,6.32
2023-05-16T08:58:05.500Z,6.43
2023-05-16T09:00:35.491Z,6.00
2023-05-16T09:03:05.848Z,5.35
2023-05-16T09:05:33.251Z,6.75
2023-05-16T09:08:02.426Z,6.03
2023-05-16T09:12:57.717Z,5.18
2023-05-16T09:15:32.190Z,6.00
2023-05-16T09:18:01.130Z,5.38
2023-05-16T09:22:56.721Z,4.25
2023-05-16T09:25:31.741Z,5.28
2023-05-16T09:28:01.887Z,5.47
2023-05-16T09:30:34.100Z,5.10
2023-05-16T09:33:05.877Z,4.20
2023-05-16T09:38:05.078Z,4.75
2023-05-16T09:40:31.762Z,4.43
2023-05-16T09:43:08.508Z,4.55
2023-05-16T09:45:37.618Z,4.55
2023-05-16T09:48:14.902Z,4.45
2023-05-16T09:50:48.914Z,5.15
2023-05-16T09:53:15.579Z,5.35
2023-05-16T09:55:42.302Z,4.95
2023-05-16T09:58:11.220Z,5.10
2023-05-16T10:00:38.136Z,5.25
2023-05-16T10:03:06.174Z,4.50
2023-05-16T10:05:36.863Z,4.95
2023-05-16T10:08:06.442Z,4.68
2023-05-16T10:10:36.415Z,4.65
2023-05-16T10:13:05.816Z,4.45
2023-05-16T10:15:35.597Z,5.55
2023-05-16T10:18:08.168Z,5.53
2023-05-16T10:20:37.362Z,5.25
2023-05-16T10:23:05.030Z,5.45
2023-05-16T10:25:41.178Z,4.88
2023-05-16T10:28:10.921Z,5.57
2023-05-16T10:30:41.780Z,5.47
2023-05-16T10:33:12.062Z,5.90
2023-05-16T10:35:41.531Z,5.93
2023-05-16T10:38:09.746Z,5.68
2023-05-16T10:40:42.634Z,5.18
2023-05-16T10:43:12.781Z,5.75
2023-05-16T10:45:44.835Z,4.70
2023-05-16T10:48:13.842Z,5.00
2023-05-16T10:53:16.523Z,5.53
2023-05-16T10:56:01.351Z,6.60
2023-05-16T10:58:38.498Z,5.85
2023-05-16T11:01:24.796Z,5.50
2023-05-16T11:03:59.725Z,5.13
2023-05-16T11:06:44.795Z,5.65
2023-05-16T11:09:14.346Z,5.07
2023-05-16T11:11:48.326Z,5.15
2023-05-16T11:14:23.221Z,5.10
2023-05-16T11:16:52.070Z,5.35
2023-05-16T11:19:41.924Z,5.05
2023-05-16T11:22:11.899Z,5.50
2023-05-16T11:24:39.774Z,5.70
2023-05-16T11:27:14.061Z,5.80
2023-05-16T11:29:41.181Z,5.53
2023-05-16T11:32:07.861Z,5.63
2023-05-16T11:34:39.988Z,6.00
2023-05-16T11:37:13.170Z,5.95
2023-05-16T11:39:39.795Z,6.72
2023-05-16T11:42:06.481Z,5.60
2023-05-16T11:44:33.192Z,6.82
2023-05-16T11:47:04.439Z,6.32
2023-05-16T11:49:31.743Z,6.10
2023-05-16T11:51:58.375Z,6.10
2023-05-16T11:54:27.689Z,6.22
2023-05-16T11:56:54.608Z,6.45
2023-05-16T11:59:22.148Z,6.07
2023-05-16T12:01:49.397Z,5.72
2023-05-16T12:04:17.514Z,5.13
2023-05-16T12:06:47.730Z,5.15
2023-05-16T12:09:18.517Z,5.78
2023-05-16T12:11:45.450Z,5.65
2023-05-16T12:14:16.097Z,5.78
2023-05-16T12:16:44.006Z,5.60
2023-05-16T12:19:15.749Z,5.13
2023-05-16T12:21:47.286Z,5.55
2023-05-16T12:24:19.030Z,5.75
2023-05-16T12:26:45.985Z,6.15
2023-05-16T12:29:13.497Z,5.43
2023-05-16T12:31:41.810Z,5.32
2023-05-16T12:34:19.390Z,5.38
2023-05-16T12:36:51.747Z,4.95
2023-05-16T12:39:18.351Z,5.40
2023-05-16T12:41:47.233Z,5.00
2023-05-16T12:44:17.294Z,5.05
2023-05-16T12:46:52.282Z,4.47
2023-05-16T12:49:27.528Z,4.85
2023-05-16T12:52:05.694Z,4.38
2023-05-16T12:54:32.362Z,4.35
2023-05-16T12:56:59.062Z,4.50
2023-05-16T12:59:29.185Z,4.20
2023-05-16T13:01:55.834Z,4.10
2023-05-16T13:04:23.694Z,3.83
2023-05-16T13:09:20.024Z,4.53
2023-05-16T13:11:46.638Z,4.40
2023-05-16T13:14:13.212Z,5.20
2023-05-16T13:16:42.008Z,4.72
2023-05-16T13:19:08.882Z,4.68
2023-05-16T13:21:42.865Z,4.57
2023-05-16T13:24:09.462Z,4.93
2023-05-16T13:26:38.678Z,5.30
2023-05-16T13:29:05.546Z,5.07
2023-05-16T13:31:32.164Z,4.35
2023-05-16T13:33:59.037Z,4.50
2023-05-16T13:36:25.784Z,4.03
2023-05-16T13:38:55.659Z,4.50
2023-05-16T13:41:22.512Z,4.53
2023-05-16T13:43:54.358Z,4.55
2023-05-16T13:46:21.150Z,5.30
2023-05-16T13:48:51.183Z,4.28
2023-05-16T13:51:17.794Z,4.75
2023-05-16T13:53:44.382Z,5.32
2023-05-16T13:56:13.451Z,4.75
2023-05-16T14:01:30.009Z,5.28
2023-05-16T14:06:27.598Z,4.00
2023-05-16T14:08:56.635Z,4.40
2023-05-16T14:11:28.734Z,4.32
2023-05-16T14:13:57.217Z,4.68
2023-05-16T14:16:26.304Z,4.20
2023-05-16T14:18:57.806Z,4.32
2023-05-16T14:21:24.843Z,4.05
2023-05-16T14:23:53.669Z,5.00
2023-05-16T14:26:25.120Z,4.22
2023-05-16T14:28:51.993Z,4.22
2023-05-16T14:31:23.670Z,4.57
2023-05-16T14:33:54.750Z,4.68
2023-05-16T14:36:21.470Z,4.07
2023-05-16T14:38:50.344Z,3.90
2023-05-16T14:41:17.089Z,4.35
2023-05-16T14:43:45.180Z,4.43
2023-05-16T14:46:14.087Z,4.65
2023-05-16T15:03:53.720Z,3.90
2023-05-16T15:06:21.741Z,4.03
2023-05-16T15:08:50.886Z,5.20
2023-05-16T15:11:17.679Z,4.90
2023-05-16T15:13:46.766Z,4.15
2023-05-16T15:16:16.311Z,4.28
2023-05-16T15:18:46.139Z,4.30
2023-05-16T15:21:15.113Z,4.50
2023-05-16T15:26:11.278Z,5.82
2023-05-16T15:28:37.919Z,4.78
2023-05-16T15:31:05.612Z,4.70
2023-05-16T15:34:26.676Z,4.95
2023-05-16T15:36:58.046Z,5.70
2023-05-16T15:39:27.327Z,5.05
2023-05-16T15:42:09.824Z,5.07
2023-05-16T15:44:38.074Z,5.53
2023-05-16T15:47:04.977Z,5.35
2023-05-16T15:49:34.068Z,5.18
2023-05-16T15:52:00.814Z,5.50
2023-05-16T15:54:28.783Z,5.45
2023-05-16T15:56:57.725Z,6.57
2023-05-16T15:59:24.563Z,6.03
2023-05-16T16:01:53.541Z,5.88
2023-05-16T16:06:50.594Z,6.88
2023-05-16T16:09:17.585Z,5.40
2023-05-16T16:11:46.657Z,6.45
2023-05-16T16:16:45.491Z,6.45
2023-05-16T16:23:49.390Z,5.93
2023-05-16T16:26:18.691Z,5.95
2023-05-16T16:28:45.332Z,6.50
2023-05-16T16:31:12.894Z,5.65
2023-05-16T16:33:45.024Z,6.85
2023-05-16T16:36:11.732Z,5.80
2023-05-16T16:38:40.694Z,6.60
2023-05-16T16:43:40.121Z,6.93
2023-05-16T16:46:09.648Z,6.68
2023-05-16T16:48:39.297Z,6.20
2023-05-16T16:51:05.942Z,6.65
2023-05-16T16:53:35.273Z,6.30
2023-05-16T16:56:01.961Z,6.07
2023-05-16T16:58:28.633Z,8.10
2023-05-16T17:00:55.292Z,7.28
2023-05-16T17:03:24.254Z,7.28
2023-05-16T17:08:20.529Z,7.28
2023-05-16T17:10:47.610Z,6.35
2023-05-16T17:13:18.963Z,6.93
2023-05-16T17:15:46.051Z,6.90
2023-05-16T17:18:12.787Z,7.05
2023-05-16T17:20:41.902Z,7.57
2023-05-16T17:23:11.018Z,7.75
2023-05-16T17:25:39.912Z,8.70
2023-05-16T17:28:06.496Z,8.73
2023-05-16T17:30:35.275Z,8.10
2023-05-16T17:33:02.009Z,8.00
2023-05-16T17:35:33.381Z,8.00
2023-05-16T17:38:03.577Z,7.20
2023-05-16T17:40:30.197Z,6.93
2023-05-16T17:42:59.196Z,6.70
2023-05-16T17:47:53.017Z,7.05
2023-05-16T17:50:20.417Z,6.78
2023-05-16T17:52:47.366Z,6.47
2023-05-16T17:55:16.496Z,8.13
2023-05-16T17:57:45.628Z,8.40
2023-05-16T18:00:15.004Z,9.48
2023-05-16T18:02:41.804Z,10.55
2023-05-16T18:05:10.543Z,10.02
2023-05-16T18:07:37.693Z,9.88
2023-05-16T18:10:05.035Z,9.27
2023-05-16T18:12:34.251Z,9.32
2023-05-16T18:15:06.663Z,8.90
2023-05-16T18:17:38.156Z,8.73
2023-05-16T18:20:10.601Z,8.48
2023-05-16T18:22:47.957Z,9.48
2023-05-16T18:25:14.706Z,7.88
2023-05-16T18:27:41.685Z,8.32
2023-05-16T18:30:12.850Z,7.57
2023-05-16T18:32:39.931Z,8.52
2023-05-16T18:38:56.220Z,7.50
2023-05-16T18:41:22.792Z,7.13
2023-05-16T18:43:49.456Z,7.57
2023-05-16T18:46:19.046Z,7.80
2023-05-16T18:48:54.016Z,9.52
2023-05-16T18:51:20.708Z,8.05
2023-05-16T18:53:47.471Z,9.00
2023-05-16T18:56:14.298Z,8.10
2023-05-16T18:58:43.374Z,7.35
2023-05-16T19:01:10.516Z,8.93
2023-05-16T19:03:42.924Z,10.10
2023-05-16T19:06:18.168Z,10.18
2023-05-16T19:12:09.024Z,8.55
2023-05-16T19:14:40.526Z,8.23
2023-05-16T19:17:09.631Z,8.05
2023-05-16T19:19:41.202Z,6.38
2023-05-16T19:22:10.155Z,7.38
2023-05-16T19:27:08.005Z,9.10
2023-05-16T19:29:34.652Z,7.93
2023-05-16T19:32:06.109Z,7.75
2023-05-16T19:34:37.745Z,7.43
2023-05-16T19:37:07.024Z,6.43
2023-05-16T19:39:33.607Z,8.02
2023-05-16T19:42:07.114Z,6.78
2023-05-16T19:44:37.383Z,7.28
2023-05-16T19:47:04.192Z,6.38
2023-05-16T19:49:31.788Z,7.28
2023-05-16T19:51:58.398Z,7.18
2023-05-16T19:54:27.214Z,6.95
2023-05-16T19:57:01.148Z,6.40
2023-05-16T19:59:32.648Z,5.88
2023-05-16T20:02:01.758Z,6.90
2023-05-16T20:04:31.217Z,6.82
2023-05-16T20:06:57.831Z,7.00
2023-05-16T20:09:29.323Z,6.90
2023-05-16T20:11:58.912Z,6.85
2023-05-16T20:14:25.832Z,6.95
2023-05-16T20:16:55.446Z,6.90
2023-05-16T20:19:22.737Z,6.97
2023-05-16T20:21:49.568Z,6.82
2023-05-16T20:24:18.396Z,7.03
2023-05-16T20:26:47.280Z,7.00
2023-05-16T20:29:16.109Z,5.95
2023-05-16T20:31:43.782Z,6.50
2023-05-16T20:34:12.510Z,6.57
2023-05-16T20:36:39.356Z,6.53
2023-05-16T20:39:09.099Z,7.32
2023-05-16T20:41:35.880Z,6.63
2023-05-16T20:44:02.510Z,6.45
2023-05-16T20:46:29.146Z,6.60
2023-05-16T20:48:58.835Z,6.30
2023-05-16T20:51:27.717Z,6.55
2023-05-16T20:53:56.761Z,6.43
2023-05-16T20:56:26.298Z,5.78
2023-05-16T20:58:52.948Z,6.25
2023-05-16T21:01:21.869Z,6.13
2023-05-16T21:06:17.593Z,6.47
2023-05-16T21:08:44.280Z,6.55
2023-05-16T21:11:13.128Z,6.22
2023-05-16T21:13:39.809Z,7.15
2023-05-16T21:16:23.981Z,7.38
2023-05-16T21:18:53.255Z,6.55
2023-05-16T21:21:19.999Z,5.68
2023-05-16T21:23:53.924Z,6.57
2023-05-16T21:26:22.832Z,6.30
2023-05-16T21:28:55.064Z,6.93
2023-05-16T21:31:32.650Z,6.18
2023-05-16T21:33:59.290Z,6.93
2023-05-16T21:36:31.271Z,6.22
2023-05-16T21:39:02.324Z,5.80
2023-05-16T21:41:31.598Z,5.75
2023-05-16T21:43:58.204Z,6.55
2023-05-16T21:46:24.825Z,7.28
2023-05-16T21:48:53.660Z,6.72
2023-05-16T21:51:20.372Z,7.05
2023-05-16T21:53:47.038Z,7.05
2023-05-16T21:56:13.717Z,6.32
2023-05-16T21:58:42.388Z,6.47
2023-05-16T22:01:11.446Z,6.07
2023-05-16T22:03:40.879Z,5.78
2023-05-16T22:06:09.831Z,6.63
2023-05-16T22:08:36.415Z,5.97
2023-05-16T22:11:05.736Z,6.80
2023-05-16T22:13:34.803Z,6.55
2023-05-16T22:16:05.320Z,5.72
2023-05-16T22:18:37.245Z,6.65
2023-05-16T22:21:06.628Z,5.97
2023-05-16T22:23:33.250Z,6.20
2023-05-16T22:25:59.823Z,5.03
2023-05-16T22:28:26.379Z,5.25
2023-05-16T22:30:55.501Z,5.90
2023-05-16T22:33:24.733Z,5.60
2023-05-16T22:35:51.501Z,6.32
2023-05-16T22:38:21.132Z,6.57
2023-05-16T22:40:50.195Z,5.85
2023-05-16T22:43:19.136Z,6.00
2023-05-16T22:45:47.984Z,4.88
2023-05-16T22:48:19.861Z,6.03
2023-05-16T22:50:46.542Z,5.60
2023-05-16T22:53:13.273Z,5.53
2023-05-16T22:55:42.035Z,5.25
2023-05-16T22:58:10.872Z,5.43
2023-05-16T23:00:37.427Z,5.57
2023-05-16T23:03:06.557Z,5.60
2023-05-16T23:05:35.793Z,5.38
2023-05-16T23:08:03.277Z,6.93
2023-05-16T23:10:32.533Z,6.50
2023-05-16T23:13:01.540Z,5.88
2023-05-16T23:15:28.262Z,5.90
2023-05-16T23:17:55.124Z,5.57
2023-05-16T23:20:22.859Z,5.35
2023-05-16T23:22:52.076Z,5.93
2023-05-16T23:25:23.507Z,5.80
2023-05-16T23:27:50.134Z,5.60
2023-05-16T23:30:19.168Z,5.70
2023-05-16T23:32:48.131Z,4.82
2023-05-16T23:35:14.925Z,5.28
2023-05-16T23:37:44.025Z,5.47
2023-05-16T23:40:10.947Z,5.10
2023-05-16T23:42:37.634Z,5.43
2023-05-16T23:45:04.908Z,6.15
2023-05-16T23:47:34.099Z,4.43
2023-05-16T23:50:00.924Z,5.45
2023-05-16T23:52:30.129Z,5.32
2023-05-16T23:54:56.801Z,5.85
2023-05-16T23:57:30.753Z,4.82
2023-05-16T23:59:57.316Z,5.47
